Main page
METAR-TAF:

METAR-TAF

Airports :

Albert – Picardie Airport

Albert, France

latitude: 49-58-21N, longitude: 002-41-29E, elevation: 111 m

Current weather observation

The report was made 22 minutes ago, at 21:00 UTC
Wind 6 kt from the North/Northeast
Temperature 15°C
Humidity 77%
Pressure 1018 hPa
Visibility 10 km or more
no clouds below 1500 m and no cumulonimbus

METAR: LFAQ 202100Z AUTO 03006KT CAVOK 15/11 Q1018

Time: 23:22 (21:22 UTC)

Forecast

The report was made 7 hours and 22 minutes ago, at 14:00 UTC
Forecast valid from 20 at 15 UTC to 20 at 24 UTC
Wind 10 kt from the Northeast
Visibility 10 km or more
no clouds below 1500 m and no cumulonimbus
Temporary
from 20 at 19 UTC to 20 at 21 UTC
Broken clouds at a height of 6000 ft, Towering cumulus.

TAF: LFAQ 201400Z 2015/2024 04010KT CAVOK TEMPO 2019/2021 BKN060TCU

Weather observations and forecasts of more than 4000 airports (METAR and TAF reports).

The available stations are represented by yellow and red dots on the map.

Hover mouse over dot to see the name of the station.

Then click to see weather observations and forecasts.

To change the map : click on the green buttons with a black cross to zoom in, on the green button with a dash to zoom out, or on the green arrows for adjacent maps.


METAR-TAF: